sensor_id;sensor_type;location;lat;lon;timestamp;pressure;altitude;pressure_sealevel;temperature;humidity
10202;BME280;5143;42.584;23.164;2022-07-29T00:01:14;92896.91;;;15.45;100.00
10202;BME280;5143;42.584;23.164;2022-07-29T00:03:41;92890.66;;;15.45;100.00
10202;BME280;5143;42.584;23.164;2022-07-29T00:06:09;92878.41;;;15.46;100.00
10202;BME280;5143;42.584;23.164;2022-07-29T00:08:35;92873.19;;;15.48;100.00
10202;BME280;5143;42.584;23.164;2022-07-29T00:11:02;92872.69;;;15.49;100.00
10202;BME280;5143;42.584;23.164;2022-07-29T00:13:30;92869.88;;;15.55;100.00
10202;BME280;5143;42.584;23.164;2022-07-29T00:15:57;92863.41;;;15.52;100.00
10202;BME280;5143;42.584;23.164;2022-07-29T00:18:24;92870.41;;;15.53;100.00
10202;BME280;5143;42.584;23.164;2022-07-29T00:20:51;92864.91;;;15.53;100.00
10202;BME280;5143;42.584;23.164;2022-07-29T00:23:18;92870.41;;;15.53;100.00
10202;BME280;5143;42.584;23.164;2022-07-29T00:25:44;92879.91;;;15.52;100.00
10202;BME280;5143;42.584;23.164;2022-07-29T00:28:11;92881.94;;;15.52;100.00
10202;BME280;5143;42.584;23.164;2022-07-29T00:30:39;92869.16;;;15.43;100.00
10202;BME280;5143;42.584;23.164;2022-07-29T00:33:08;92875.19;;;15.36;100.00
10202;BME280;5143;42.584;23.164;2022-07-29T00:35:35;92871.97;;;15.32;100.00
10202;BME280;5143;42.584;23.164;2022-07-29T00:38:10;92864.47;;;15.32;100.00
10202;BME280;5143;42.584;23.164;2022-07-29T00:40:37;92871.22;;;15.26;100.00
10202;BME280;5143;42.584;23.164;2022-07-29T00:43:04;92864.97;;;15.25;100.00
10202;BME280;5143;42.584;23.164;2022-07-29T00:45:31;92862.75;;;15.24;100.00
10202;BME280;5143;42.584;23.164;2022-07-29T00:48:00;92848.72;;;15.22;100.00
10202;BME280;5143;42.584;23.164;2022-07-29T00:50:27;92854.75;;;15.15;100.00
10202;BME280;5143;42.584;23.164;2022-07-29T00:52:54;92853.78;;;15.12;100.00
10202;BME280;5143;42.584;23.164;2022-07-29T00:55:20;92852.25;;;15.17;100.00
10202;BME280;5143;42.584;23.164;2022-07-29T00:57:47;92857.50;;;15.15;100.00
10202;BME280;5143;42.584;23.164;2022-07-29T01:00:17;92853.78;;;15.12;100.00
10202;BME280;5143;42.584;23.164;2022-07-29T01:02:44;92844.78;;;15.12;100.00
10202;BME280;5143;42.584;23.164;2022-07-29T01:05:16;92844.00;;;15.11;100.00
10202;BME280;5143;42.584;23.164;2022-07-29T01:07:44;92837.28;;;15.07;100.00
10202;BME280;5143;42.584;23.164;2022-07-29T01:10:13;92828.03;;;15.10;100.00
10202;BME280;5143;42.584;23.164;2022-07-29T01:12:43;92831.78;;;15.07;100.00
10202;BME280;5143;42.584;23.164;2022-07-29T01:15:11;92832.78;;;15.04;100.00
10202;BME280;5143;42.584;23.164;2022-07-29T01:17:43;92830.31;;;14.95;100.00
10202;BME280;5143;42.584;23.164;2022-07-29T01:20:16;92841.31;;;14.95;98.90
10202;BME280;5143;42.584;23.164;2022-07-29T01:25:53;92838.56;;;14.95;100.00
10202;BME280;5143;42.584;23.164;2022-07-29T01:28:47;92816.34;;;14.82;100.00
10202;BME280;5143;42.584;23.164;2022-07-29T01:31:18;92826.09;;;14.94;100.00
10202;BME280;5143;42.584;23.164;2022-07-29T01:34:03;92820.59;;;14.88;98.96
10202;BME280;5143;42.584;23.164;2022-07-29T01:36:33;92813.09;;;14.94;100.00
10202;BME280;5143;42.584;23.164;2022-07-29T01:39:06;92811.34;;;14.97;100.00
10202;BME280;5143;42.584;23.164;2022-07-29T01:41:37;92810.81;;;15.04;100.00
10202;BME280;5143;42.584;23.164;2022-07-29T01:44:12;92809.28;;;15.03;100.00
10202;BME280;5143;42.584;23.164;2022-07-29T01:46:44;92821.81;;;15.04;100.00
10202;BME280;5143;42.584;23.164;2022-07-29T01:49:18;92817.06;;;15.04;100.00
10202;BME280;5143;42.584;23.164;2022-07-29T01:51:50;92812.53;;;15.07;100.00
10202;BME280;5143;42.584;23.164;2022-07-29T01:54:21;92808.78;;;15.10;100.00
10202;BME280;5143;42.584;23.164;2022-07-29T01:56:53;92813.28;;;15.07;100.00
10202;BME280;5143;42.584;23.164;2022-07-29T01:59:23;92819.78;;;15.10;100.00
10202;BME280;5143;42.584;23.164;2022-07-29T02:01:54;92819.28;;;15.06;100.00
10202;BME280;5143;42.584;23.164;2022-07-29T02:04:21;92823.53;;;15.07;100.00
10202;BME280;5143;42.584;23.164;2022-07-29T02:06:51;92812.03;;;15.03;100.00
10202;BME280;5143;42.584;23.164;2022-07-29T02:09:20;92811.56;;;14.99;100.00
10202;BME280;5143;42.584;23.164;2022-07-29T02:11:51;92804.34;;;14.96;100.00
10202;BME280;5143;42.584;23.164;2022-07-29T02:14:20;92808.81;;;14.99;100.00
10202;BME280;5143;42.584;23.164;2022-07-29T02:16:52;92800.34;;;14.97;100.00
10202;BME280;5143;42.584;23.164;2022-07-29T02:19:21;92795.56;;;14.97;100.00
10202;BME280;5143;42.584;23.164;2022-07-29T02:21:51;92782.88;;;14.89;100.00
10202;BME280;5143;42.584;23.164;2022-07-29T02:24:20;92783.66;;;14.72;100.00
10202;BME280;5143;42.584;23.164;2022-07-29T02:26:49;92789.88;;;14.78;100.00
10202;BME280;5143;42.584;23.164;2022-07-29T02:29:18;92784.63;;;14.81;100.00
10202;BME280;5143;42.584;23.164;2022-07-29T02:31:49;92788.63;;;14.85;100.00
10202;BME280;5143;42.584;23.164;2022-07-29T02:34:18;92780.41;;;14.80;100.00
10202;BME280;5143;42.584;23.164;2022-07-29T02:36:46;92784.38;;;14.84;100.00
10202;BME280;5143;42.584;23.164;2022-07-29T02:39:15;92777.09;;;14.92;100.00
10202;BME280;5143;42.584;23.164;2022-07-29T02:41:44;92785.09;;;14.96;100.00
10202;BME280;5143;42.584;23.164;2022-07-29T02:44:13;92788.31;;;15.00;96.99
10202;BME280;5143;42.584;23.164;2022-07-29T02:46:45;92791.03;;;15.05;96.57
10202;BME280;5143;42.584;23.164;2022-07-29T02:49:18;92796.03;;;15.07;99.93
10202;BME280;5143;42.584;23.164;2022-07-29T02:51:54;92791.78;;;15.06;100.00
10202;BME280;5143;42.584;23.164;2022-07-29T02:54:31;92786.78;;;15.10;100.00
10202;BME280;5143;42.584;23.164;2022-07-29T02:57:00;92784.28;;;15.12;100.00
10202;BME280;5143;42.584;23.164;2022-07-29T02:59:30;92781.75;;;15.14;100.00
10202;BME280;5143;42.584;23.164;2022-07-29T03:02:02;92770.28;;;15.10;100.00
10202;BME280;5143;42.584;23.164;2022-07-29T03:04:34;92773.81;;;15.05;100.00
10202;BME280;5143;42.584;23.164;2022-07-29T03:07:01;92769.03;;;15.05;100.00
10202;BME280;5143;42.584;23.164;2022-07-29T03:09:30;92772.81;;;15.02;100.00
10202;BME280;5143;42.584;23.164;2022-07-29T03:11:57;92768.56;;;15.01;100.00
10202;BME280;5143;42.584;23.164;2022-07-29T03:14:24;92769.13;;;14.94;100.00
10202;BME280;5143;42.584;23.164;2022-07-29T03:16:52;92766.88;;;14.87;100.00
10202;BME280;5143;42.584;23.164;2022-07-29T03:19:19;92774.13;;;14.85;100.00
10202;BME280;5143;42.584;23.164;2022-07-29T03:21:48;92781.16;;;14.80;100.00
10202;BME280;5143;42.584;23.164;2022-07-29T03:24:25;92785.41;;;14.70;100.00
10202;BME280;5143;42.584;23.164;2022-07-29T03:26:52;92792.94;;;14.69;100.00
10202;BME280;5143;42.584;23.164;2022-07-29T03:29:19;92798.66;;;14.71;100.00
10202;BME280;5143;42.584;23.164;2022-07-29T03:31:46;92794.16;;;14.68;100.00
10202;BME280;5143;42.584;23.164;2022-07-29T03:34:12;92799.16;;;14.64;100.00
10202;BME280;5143;42.584;23.164;2022-07-29T03:36:39;92806.16;;;14.71;100.00
10202;BME280;5143;42.584;23.164;2022-07-29T03:39:08;92805.41;;;14.70;100.00
10202;BME280;5143;42.584;23.164;2022-07-29T03:41:35;92805.63;;;14.72;100.00
10202;BME280;5143;42.584;23.164;2022-07-29T03:44:04;92794.66;;;14.67;100.00
10202;BME280;5143;42.584;23.164;2022-07-29T03:46:33;92808.38;;;14.72;100.00
10202;BME280;5143;42.584;23.164;2022-07-29T03:49:03;92810.16;;;14.64;100.00
10202;BME280;5143;42.584;23.164;2022-07-29T03:51:30;92808.66;;;14.74;100.00
10202;BME280;5143;42.584;23.164;2022-07-29T03:53:57;92808.88;;;14.76;100.00
10202;BME280;5143;42.584;23.164;2022-07-29T03:56:27;92809.13;;;14.78;100.00
10202;BME280;5143;42.584;23.164;2022-07-29T03:58:54;92805.59;;;14.84;100.00
10202;BME280;5143;42.584;23.164;2022-07-29T04:01:22;92806.34;;;14.90;100.00
10202;BME280;5143;42.584;23.164;2022-07-29T04:03:50;92796.84;;;14.91;100.00
10202;BME280;5143;42.584;23.164;2022-07-29T04:06:17;92800.06;;;14.95;100.00
10202;BME280;5143;42.584;23.164;2022-07-29T04:08:44;92801.34;;;14.94;100.00
10202;BME280;5143;42.584;23.164;2022-07-29T04:11:11;92795.06;;;15.04;100.00
10202;BME280;5143;42.584;23.164;2022-07-29T04:13:40;92802.28;;;15.13;100.00
10202;BME280;5143;42.584;23.164;2022-07-29T04:16:07;92805.97;;;15.26;100.00
10202;BME280;5143;42.584;23.164;2022-07-29T04:18:34;92806.72;;;15.27;100.00
10202;BME280;5143;42.584;23.164;2022-07-29T04:21:00;92813.69;;;15.33;100.00
10202;BME280;5143;42.584;23.164;2022-07-29T04:23:29;92811.63;;;15.45;100.00
10202;BME280;5143;42.584;23.164;2022-07-29T04:25:57;92807.63;;;15.57;100.00
10202;BME280;5143;42.584;23.164;2022-07-29T04:28:25;92806.28;;;15.69;100.00
10202;BME280;5143;42.584;23.164;2022-07-29T04:30:53;92817.75;;;15.79;100.00
10202;BME280;5143;42.584;23.164;2022-07-29T04:33:20;92812.91;;;15.90;100.00
10202;BME280;5143;42.584;23.164;2022-07-29T04:35:47;92818.66;;;15.52;100.00
10202;BME280;5143;42.584;23.164;2022-07-29T04:38:14;92828.25;;;15.75;100.00
10202;BME280;5143;42.584;23.164;2022-07-29T04:40:40;92816.69;;;16.52;100.00
10202;BME280;5143;42.584;23.164;2022-07-29T04:43:07;92814.53;;;18.17;100.00
10202;BME280;5143;42.584;23.164;2022-07-29T04:45:34;92832.84;;;20.22;100.00
10202;BME280;5143;42.584;23.164;2022-07-29T04:48:03;92831.50;;;22.04;100.00
10202;BME280;5143;42.584;23.164;2022-07-29T04:50:29;92840.06;;;23.55;100.00
10202;BME280;5143;42.584;23.164;2022-07-29T04:52:57;92852.63;;;25.31;77.32
10202;BME280;5143;42.584;23.164;2022-07-29T04:55:23;92854.97;;;26.52;69.82
10202;BME280;5143;42.584;23.164;2022-07-29T04:57:50;92853.78;;;26.72;64.93
10202;BME280;5143;42.584;23.164;2022-07-29T05:00:17;92860.34;;;27.47;61.66
10202;BME280;5143;42.584;23.164;2022-07-29T05:02:44;92853.13;;;28.09;58.48
10202;BME280;5143;42.584;23.164;2022-07-29T05:05:12;92857.00;;;29.12;54.96
10202;BME280;5143;42.584;23.164;2022-07-29T05:07:39;92855.28;;;29.47;52.54
10202;BME280;5143;42.584;23.164;2022-07-29T05:10:06;92856.78;;;30.21;51.07
10202;BME280;5143;42.584;23.164;2022-07-29T05:12:33;92859.44;;;30.94;48.88
10202;BME280;5143;42.584;23.164;2022-07-29T05:15:00;92853.66;;;31.72;48.03
10202;BME280;5143;42.584;23.164;2022-07-29T05:17:26;92853.94;;;31.08;47.22
10202;BME280;5143;42.584;23.164;2022-07-29T05:19:53;92859.00;;;31.21;48.32
10202;BME280;5143;42.584;23.164;2022-07-29T05:22:21;92857.22;;;31.72;46.86
10202;BME280;5143;42.584;23.164;2022-07-29T05:24:48;92862.75;;;32.05;45.46
10202;BME280;5143;42.584;23.164;2022-07-29T05:27:15;92864.13;;;32.78;43.76
10202;BME280;5143;42.584;23.164;2022-07-29T05:29:42;92864.34;;;32.56;42.65
10202;BME280;5143;42.584;23.164;2022-07-29T05:32:10;92862.34;;;32.10;43.53
10202;BME280;5143;42.584;23.164;2022-07-29T05:34:37;92864.56;;;31.89;43.63
10202;BME280;5143;42.584;23.164;2022-07-29T05:37:03;92872.28;;;32.11;43.28
10202;BME280;5143;42.584;23.164;2022-07-29T05:39:32;92860.22;;;32.23;42.94
10202;BME280;5143;42.584;23.164;2022-07-29T05:41:58;92868.59;;;32.21;43.76
10202;BME280;5143;42.584;23.164;2022-07-29T05:44:25;92872.19;;;30.95;44.82
10202;BME280;5143;42.584;23.164;2022-07-29T05:46:52;92876.50;;;31.64;44.05
10202;BME280;5143;42.584;23.164;2022-07-29T05:49:19;92875.78;;;31.08;44.90
10202;BME280;5143;42.584;23.164;2022-07-29T05:51:45;92871.28;;;30.81;45.16
10202;BME280;5143;42.584;23.164;2022-07-29T05:54:14;92873.91;;;30.68;43.76
10202;BME280;5143;42.584;23.164;2022-07-29T05:56:42;92869.72;;;29.94;45.88
10202;BME280;5143;42.584;23.164;2022-07-29T05:59:09;92878.88;;;30.90;44.21
10202;BME280;5143;42.584;23.164;2022-07-29T06:01:35;92880.84;;;32.37;42.36
10202;BME280;5143;42.584;23.164;2022-07-29T06:04:04;92880.69;;;32.46;42.95
10202;BME280;5143;42.584;23.164;2022-07-29T06:06:31;92883.81;;;33.12;42.00
10202;BME280;5143;42.584;23.164;2022-07-29T06:08:58;92893.22;;;33.81;40.33
10202;BME280;5143;42.584;23.164;2022-07-29T06:11:25;92892.25;;;33.76;40.17
10202;BME280;5143;42.584;23.164;2022-07-29T06:13:53;92885.31;;;33.66;40.24
10202;BME280;5143;42.584;23.164;2022-07-29T06:16:20;92890.78;;;33.37;40.83
10202;BME280;5143;42.584;23.164;2022-07-29T06:18:47;92887.94;;;33.62;40.40
10202;BME280;5143;42.584;23.164;2022-07-29T06:21:14;92897.09;;;34.42;39.35
10202;BME280;5143;42.584;23.164;2022-07-29T06:23:40;92896.50;;;35.29;37.79
10202;BME280;5143;42.584;23.164;2022-07-29T06:26:07;92889.44;;;34.17;38.31
10202;BME280;5143;42.584;23.164;2022-07-29T06:28:34;92885.06;;;33.48;39.62
10202;BME280;5143;42.584;23.164;2022-07-29T06:31:02;92877.19;;;33.47;39.12
10202;BME280;5143;42.584;23.164;2022-07-29T06:33:29;92874.72;;;33.28;38.30
10202;BME280;5143;42.584;23.164;2022-07-29T06:35:56;92879.47;;;32.86;39.59
10202;BME280;5143;42.584;23.164;2022-07-29T06:38:23;92876.66;;;33.11;39.66
10202;BME280;5143;42.584;23.164;2022-07-29T06:40:50;92871.91;;;32.77;40.66
10202;BME280;5143;42.584;23.164;2022-07-29T06:43:31;92864.59;;;33.11;40.45
10202;BME280;5143;42.584;23.164;2022-07-29T06:46:03;92872.31;;;33.74;39.80
10202;BME280;5143;42.584;23.164;2022-07-29T06:48:31;92883.75;;;34.72;38.43
10202;BME280;5143;42.584;23.164;2022-07-29T06:50:59;92885.22;;;35.92;37.82
10202;BME280;5143;42.584;23.164;2022-07-29T06:53:26;92884.94;;;35.86;37.21
10202;BME280;5143;42.584;23.164;2022-07-29T06:55:53;92887.25;;;35.74;37.76
10202;BME280;5143;42.584;23.164;2022-07-29T06:58:20;92887.50;;;35.80;36.95
10202;BME280;5143;42.584;23.164;2022-07-29T07:00:47;92895.47;;;35.99;36.08
10202;BME280;5143;42.584;23.164;2022-07-29T07:03:16;92883.28;;;35.81;36.59
10202;BME280;5143;42.584;23.164;2022-07-29T07:05:44;92892.69;;;35.09;38.81
10202;BME280;5143;42.584;23.164;2022-07-29T07:08:11;92884.72;;;35.50;37.58
10202;BME280;5143;42.584;23.164;2022-07-29T07:10:38;92884.94;;;35.55;37.15
10202;BME280;5143;42.584;23.164;2022-07-29T07:13:05;92894.66;;;35.81;37.54
10202;BME280;5143;42.584;23.164;2022-07-29T07:15:32;92886.78;;;36.10;37.20
10202;BME280;5143;42.584;23.164;2022-07-29T07:17:59;92884.00;;;36.28;37.34
10202;BME280;5143;42.584;23.164;2022-07-29T07:20:27;92884.94;;;34.96;38.32
10202;BME280;5143;42.584;23.164;2022-07-29T07:22:54;92885.03;;;34.42;39.34
10202;BME280;5143;42.584;23.164;2022-07-29T07:25:21;92885.78;;;33.49;41.38
10202;BME280;5143;42.584;23.164;2022-07-29T07:27:47;92878.22;;;33.92;40.94
10202;BME280;5143;42.584;23.164;2022-07-29T07:30:15;92887.53;;;34.63;41.31
10202;BME280;5143;42.584;23.164;2022-07-29T07:32:42;92875.28;;;34.31;40.14
10202;BME280;5143;42.584;23.164;2022-07-29T07:35:10;92865.72;;;33.31;41.81
10202;BME280;5143;42.584;23.164;2022-07-29T07:37:39;92877.94;;;34.13;40.00
10202;BME280;5143;42.584;23.164;2022-07-29T07:40:08;92877.59;;;34.07;39.09
10202;BME280;5143;42.584;23.164;2022-07-29T07:42:36;92878.50;;;34.53;39.49
10202;BME280;5143;42.584;23.164;2022-07-29T07:45:04;92874.84;;;34.23;39.81
10202;BME280;5143;42.584;23.164;2022-07-29T07:47:31;92873.59;;;34.39;40.27
10202;BME280;5143;42.584;23.164;2022-07-29T07:49:58;92867.47;;;34.59;39.36
10202;BME280;5143;42.584;23.164;2022-07-29T07:52:25;92870.22;;;35.44;38.08
10202;BME280;5143;42.584;23.164;2022-07-29T07:54:53;92869.91;;;35.68;38.65
10202;BME280;5143;42.584;23.164;2022-07-29T07:57:20;92873.47;;;35.08;39.03
10202;BME280;5143;42.584;23.164;2022-07-29T07:59:47;92869.41;;;34.83;39.61
10202;BME280;5143;42.584;23.164;2022-07-29T08:02:14;92865.22;;;34.01;40.44
10202;BME280;5143;42.584;23.164;2022-07-29T08:04:41;92863.38;;;34.62;40.24
10202;BME280;5143;42.584;23.164;2022-07-29T08:07:08;92864.59;;;34.86;39.51
10202;BME280;5143;42.584;23.164;2022-07-29T08:09:35;92866.78;;;34.17;42.04
10202;BME280;5143;42.584;23.164;2022-07-29T08:12:04;92873.16;;;34.04;40.63
10202;BME280;5143;42.584;23.164;2022-07-29T08:14:31;92865.19;;;33.87;41.59
10202;BME280;5143;42.584;23.164;2022-07-29T08:16:58;92857.06;;;32.90;41.99
10202;BME280;5143;42.584;23.164;2022-07-29T08:19:25;92859.94;;;32.79;43.88
10202;BME280;5143;42.584;23.164;2022-07-29T08:21:52;92861.88;;;32.88;42.96
10202;BME280;5143;42.584;23.164;2022-07-29T08:24:19;92867.16;;;33.57;42.37
10202;BME280;5143;42.584;23.164;2022-07-29T08:27:05;92868.50;;;33.56;42.04
10202;BME280;5143;42.584;23.164;2022-07-29T08:29:32;92865.81;;;33.33;44.79
10202;BME280;5143;42.584;23.164;2022-07-29T08:31:59;92865.94;;;33.35;43.63
10202;BME280;5143;42.584;23.164;2022-07-29T08:34:26;92860.84;;;32.21;43.95
10202;BME280;5143;42.584;23.164;2022-07-29T08:36:53;92861.22;;;31.46;45.82
10202;BME280;5143;42.584;23.164;2022-07-29T08:39:20;92856.50;;;30.71;47.79
10202;BME280;5143;42.584;23.164;2022-07-29T08:41:47;92859.00;;;31.21;46.97
10202;BME280;5143;42.584;23.164;2022-07-29T08:44:17;92841.66;;;30.17;48.66
10202;BME280;5143;42.584;23.164;2022-07-29T08:46:44;92844.72;;;29.78;49.63
10202;BME280;5143;42.584;23.164;2022-07-29T08:49:11;92847.94;;;29.63;51.55
10202;BME280;5143;42.584;23.164;2022-07-29T08:51:39;92842.16;;;29.61;50.12
10202;BME280;5143;42.584;23.164;2022-07-29T08:54:08;92836.13;;;29.15;52.53
10202;BME280;5143;42.584;23.164;2022-07-29T08:56:34;92829.75;;;29.24;52.35
10202;BME280;5143;42.584;23.164;2022-07-29T08:59:03;92826.56;;;28.99;51.37
10202;BME280;5143;42.584;23.164;2022-07-29T09:01:33;92832.97;;;28.80;53.73
10202;BME280;5143;42.584;23.164;2022-07-29T09:04:03;92833.66;;;29.00;54.06
10202;BME280;5143;42.584;23.164;2022-07-29T09:06:32;92827.97;;;29.19;51.85
10202;BME280;5143;42.584;23.164;2022-07-29T09:09:01;92832.56;;;29.24;52.44
10202;BME280;5143;42.584;23.164;2022-07-29T09:11:28;92818.31;;;29.62;53.03
10202;BME280;5143;42.584;23.164;2022-07-29T09:13:54;92834.81;;;29.77;51.78
10202;BME280;5143;42.584;23.164;2022-07-29T09:16:21;92834.19;;;29.89;51.31
10202;BME280;5143;42.584;23.164;2022-07-29T09:18:49;92832.56;;;29.55;50.56
10202;BME280;5143;42.584;23.164;2022-07-29T09:21:17;92829.44;;;29.60;51.28
10202;BME280;5143;42.584;23.164;2022-07-29T09:24:06;92834.19;;;29.89;52.96
10202;BME280;5143;42.584;23.164;2022-07-29T09:26:36;92836.66;;;29.94;48.72
10202;BME280;5143;42.584;23.164;2022-07-29T09:29:11;92835.97;;;29.53;49.19
10202;BME280;5143;42.584;23.164;2022-07-29T09:31:39;92833.31;;;29.55;51.12
10202;BME280;5143;42.584;23.164;2022-07-29T09:34:09;92829.56;;;29.93;49.92
10202;BME280;5143;42.584;23.164;2022-07-29T09:36:40;92842.47;;;30.29;50.21
10202;BME280;5143;42.584;23.164;2022-07-29T09:39:07;92837.34;;;29.83;49.68
10202;BME280;5143;42.584;23.164;2022-07-29T09:41:47;92827.06;;;29.57;49.82
10202;BME280;5143;42.584;23.164;2022-07-29T09:44:15;92828.38;;;29.65;51.65
10202;BME280;5143;42.584;23.164;2022-07-29T09:46:53;92823.94;;;29.62;49.88
10202;BME280;5143;42.584;23.164;2022-07-29T09:49:21;92822.22;;;29.78;49.63
10202;BME280;5143;42.584;23.164;2022-07-29T09:51:59;92820.06;;;29.67;49.84
10202;BME280;5143;42.584;23.164;2022-07-29T09:54:27;92815.94;;;29.90;49.63
10202;BME280;5143;42.584;23.164;2022-07-29T09:56:55;92819.41;;;30.00;48.79
10202;BME280;5143;42.584;23.164;2022-07-29T09:59:21;92811.13;;;30.02;47.26
10202;BME280;5143;42.584;23.164;2022-07-29T10:01:51;92809.66;;;29.79;48.24
10202;BME280;5143;42.584;23.164;2022-07-29T10:04:19;92802.81;;;30.04;48.74
10202;BME280;5143;42.584;23.164;2022-07-29T10:06:57;92808.25;;;30.44;48.35
10202;BME280;5143;42.584;23.164;2022-07-29T10:09:24;92806.94;;;30.89;48.11
10202;BME280;5143;42.584;23.164;2022-07-29T10:12:08;92805.16;;;31.06;46.18
10202;BME280;5143;42.584;23.164;2022-07-29T10:14:36;92794.47;;;31.16;48.49
10202;BME280;5143;42.584;23.164;2022-07-29T10:17:05;92796.94;;;30.98;47.07
10202;BME280;5143;42.584;23.164;2022-07-29T10:19:33;92789.41;;;30.91;46.92
10202;BME280;5143;42.584;23.164;2022-07-29T10:22:03;92790.56;;;31.09;46.36
10202;BME280;5143;42.584;23.164;2022-07-29T10:24:32;92775.25;;;31.12;47.64
10202;BME280;5143;42.584;23.164;2022-07-29T10:27:00;92776.03;;;30.91;46.20
10202;BME280;5143;42.584;23.164;2022-07-29T10:29:28;92781.69;;;30.91;46.24
10202;BME280;5143;42.584;23.164;2022-07-29T10:32:20;92780.81;;;30.89;45.46
10202;BME280;5143;42.584;23.164;2022-07-29T10:35:14;92778.06;;;31.12;46.59
10202;BME280;5143;42.584;23.164;2022-07-29T10:37:56;92770.06;;;31.32;46.32
10202;BME280;5143;42.584;23.164;2022-07-29T10:40:29;92767.00;;;30.93;44.33
10202;BME280;5143;42.584;23.164;2022-07-29T10:43:19;92771.75;;;30.90;44.69
10202;BME280;5143;42.584;23.164;2022-07-29T10:45:48;92762.13;;;31.17;44.93
10202;BME280;5143;42.584;23.164;2022-07-29T10:48:16;92761.38;;;31.39;44.86
10202;BME280;5143;42.584;23.164;2022-07-29T10:50:52;92757.34;;;31.31;43.60
10202;BME280;5143;42.584;23.164;2022-07-29T10:53:20;92762.38;;;31.56;45.48
10202;BME280;5143;42.584;23.164;2022-07-29T10:55:49;92753.16;;;31.55;44.15
10202;BME280;5143;42.584;23.164;2022-07-29T10:58:18;92752.91;;;31.51;44.86
10202;BME280;5143;42.584;23.164;2022-07-29T11:00:47;92754.22;;;31.73;44.54
10202;BME280;5143;42.584;23.164;2022-07-29T11:03:47;92739.66;;;31.30;44.72
10202;BME280;5143;42.584;23.164;2022-07-29T11:06:17;92744.56;;;31.30;44.74
10202;BME280;5143;42.584;23.164;2022-07-29T11:09:15;92743.81;;;31.29;42.86
10202;BME280;5143;42.584;23.164;2022-07-29T11:11:42;92742.34;;;31.63;42.01
10202;BME280;5143;42.584;23.164;2022-07-29T11:14:09;92755.88;;;31.53;42.47
10202;BME280;5143;42.584;23.164;2022-07-29T11:16:58;92742.38;;;31.17;43.52
10202;BME280;5143;42.584;23.164;2022-07-29T11:19:26;92734.38;;;30.90;43.82
10202;BME280;5143;42.584;23.164;2022-07-29T11:21:53;92737.00;;;30.53;44.29
10202;BME280;5143;42.584;23.164;2022-07-29T11:24:22;92730.56;;;30.29;45.05
10202;BME280;5143;42.584;23.164;2022-07-29T11:27:14;92723.06;;;30.67;45.16
10202;BME280;5143;42.584;23.164;2022-07-29T11:29:50;92728.88;;;31.27;43.81
10202;BME280;5143;42.584;23.164;2022-07-29T11:32:18;92727.41;;;31.97;44.30
10202;BME280;5143;42.584;23.164;2022-07-29T11:34:47;92728.81;;;32.22;42.54
10202;BME280;5143;42.584;23.164;2022-07-29T11:37:21;92733.84;;;32.23;42.36
10202;BME280;5143;42.584;23.164;2022-07-29T11:40:15;92730.81;;;31.36;42.70
10202;BME280;5143;42.584;23.164;2022-07-29T11:42:44;92730.97;;;31.49;43.48
10202;BME280;5143;42.584;23.164;2022-07-29T11:45:13;92727.16;;;31.45;44.88
10202;BME280;5143;42.584;23.164;2022-07-29T11:47:47;92724.94;;;31.55;42.48
10202;BME280;5143;42.584;23.164;2022-07-29T11:50:16;92728.00;;;31.96;40.94
10202;BME280;5143;42.584;23.164;2022-07-29T11:52:44;92732.94;;;32.32;39.15
10202;BME280;5143;42.584;23.164;2022-07-29T11:55:14;92724.72;;;32.50;39.99
10202;BME280;5143;42.584;23.164;2022-07-29T11:57:50;92718.53;;;32.65;39.38
10202;BME280;5143;42.584;23.164;2022-07-29T12:00:23;92727.22;;;32.44;39.47
10202;BME280;5143;42.584;23.164;2022-07-29T12:02:51;92709.69;;;32.08;40.46
10202;BME280;5143;42.584;23.164;2022-07-29T12:05:18;92717.63;;;32.49;40.72
10202;BME280;5143;42.584;23.164;2022-07-29T12:07:46;92709.50;;;32.55;40.24
10202;BME280;5143;42.584;23.164;2022-07-29T12:10:14;92710.59;;;32.75;39.41
10202;BME280;5143;42.584;23.164;2022-07-29T12:12:40;92714.13;;;32.62;39.91
10202;BME280;5143;42.584;23.164;2022-07-29T12:15:14;92717.63;;;32.49;40.27
10202;BME280;5143;42.584;23.164;2022-07-29T12:17:42;92716.31;;;32.38;39.12
10202;BME280;5143;42.584;23.164;2022-07-29T12:20:09;92718.06;;;31.95;38.93
10202;BME280;5143;42.584;23.164;2022-07-29T12:22:40;92708.00;;;32.03;39.28
10202;BME280;5143;42.584;23.164;2022-07-29T12:25:11;92711.34;;;32.25;38.69
10202;BME280;5143;42.584;23.164;2022-07-29T12:27:41;92710.34;;;32.32;39.50
10202;BME280;5143;42.584;23.164;2022-07-29T12:30:10;92711.06;;;32.58;38.57
10202;BME280;5143;42.584;23.164;2022-07-29T12:32:40;92706.28;;;32.60;38.22
10202;BME280;5143;42.584;23.164;2022-07-29T12:35:08;92710.09;;;32.79;38.07
10202;BME280;5143;42.584;23.164;2022-07-29T12:37:37;92701.59;;;32.79;38.20
10202;BME280;5143;42.584;23.164;2022-07-29T12:40:06;92701.03;;;33.07;37.76
10202;BME280;5143;42.584;23.164;2022-07-29T12:42:34;92703.88;;;33.21;38.64
10202;BME280;5143;42.584;23.164;2022-07-29T12:45:02;92692.34;;;33.44;37.77
10202;BME280;5143;42.584;23.164;2022-07-29T12:47:28;92702.19;;;33.84;39.45
10202;BME280;5143;42.584;23.164;2022-07-29T12:50:09;92702.78;;;33.96;36.42
10202;BME280;5143;42.584;23.164;2022-07-29T12:52:36;92697.06;;;33.67;38.74
10202;BME280;5143;42.584;23.164;2022-07-29T12:55:04;92704.72;;;33.64;37.81
10202;BME280;5143;42.584;23.164;2022-07-29T12:57:32;92691.28;;;33.38;36.05
10202;BME280;5143;42.584;23.164;2022-07-29T13:00:03;92687.72;;;33.51;36.28
10202;BME280;5143;42.584;23.164;2022-07-29T13:02:31;92685.66;;;33.65;36.93
10202;BME280;5143;42.584;23.164;2022-07-29T13:04:59;92687.59;;;33.49;37.15
10202;BME280;5143;42.584;23.164;2022-07-29T13:07:30;92679.22;;;33.78;36.68
10202;BME280;5143;42.584;23.164;2022-07-29T13:10:11;92679.00;;;33.74;35.81
10202;BME280;5143;42.584;23.164;2022-07-29T13:12:38;92679.16;;;34.05;35.57